sensor_id;sensor_type;location;lat;lon;timestamp;pressure;altitude;pressure_sealevel;temperature;humidity
69200;BME280;56313;49.804;9.952;2022-08-25T00:01:25;99491.84;;;19.93;63.73
69200;BME280;56313;49.804;9.952;2022-08-25T00:03:50;99498.03;;;20.00;63.55
69200;BME280;56313;49.804;9.952;2022-08-25T00:06:16;99492.94;;;20.06;63.33
69200;BME280;56313;49.804;9.952;2022-08-25T00:08:42;99497.81;;;19.95;63.70
69200;BME280;56313;49.804;9.952;2022-08-25T00:11:18;99491.47;;;19.90;63.84
69200;BME280;56313;49.804;9.952;2022-08-25T00:13:44;99486.13;;;19.83;64.35
69200;BME280;56313;49.804;9.952;2022-08-25T00:16:11;99489.81;;;19.82;64.45
69200;BME280;56313;49.804;9.952;2022-08-25T00:18:37;99491.22;;;19.71;64.81
69200;BME280;56313;49.804;9.952;2022-08-25T00:21:03;99488.72;;;19.56;65.37
69200;BME280;56313;49.804;9.952;2022-08-25T00:23:28;99492.22;;;19.63;65.30
69200;BME280;56313;49.804;9.952;2022-08-25T00:25:53;99494.69;;;19.78;64.76
69200;BME280;56313;49.804;9.952;2022-08-25T00:28:19;99493.06;;;19.77;64.79
69200;BME280;56313;49.804;9.952;2022-08-25T00:30:45;99497.97;;;19.80;65.01
69200;BME280;56313;49.804;9.952;2022-08-25T00:33:10;99499.19;;;19.64;65.34
69200;BME280;56313;49.804;9.952;2022-08-25T00:35:36;99499.19;;;19.71;65.36
69200;BME280;56313;49.804;9.952;2022-08-25T00:38:01;99499.63;;;19.74;64.75
69200;BME280;56313;49.804;9.952;2022-08-25T00:40:27;99502.91;;;19.83;64.71
69200;BME280;56313;49.804;9.952;2022-08-25T00:42:53;99489.81;;;19.88;64.66
69200;BME280;56313;49.804;9.952;2022-08-25T00:45:18;99494.91;;;19.90;64.68
69200;BME280;56313;49.804;9.952;2022-08-25T00:47:43;99500.84;;;19.92;64.61
69200;BME280;56313;49.804;9.952;2022-08-25T00:50:09;99494.72;;;19.92;64.52
69200;BME280;56313;49.804;9.952;2022-08-25T00:52:37;99495.13;;;19.88;64.80
69200;BME280;56313;49.804;9.952;2022-08-25T00:55:05;99496.97;;;19.95;64.89
69200;BME280;56313;49.804;9.952;2022-08-25T00:57:32;99492.28;;;19.97;64.75
69200;BME280;56313;49.804;9.952;2022-08-25T00:59:58;99497.59;;;19.97;65.12
69200;BME280;56313;49.804;9.952;2022-08-25T01:02:24;99498.63;;;20.09;64.50
69200;BME280;56313;49.804;9.952;2022-08-25T01:04:49;99489.25;;;20.07;64.67
69200;BME280;56313;49.804;9.952;2022-08-25T01:07:15;99487.16;;;19.88;65.28
69200;BME280;56313;49.804;9.952;2022-08-25T01:09:41;99483.06;;;19.93;65.13
69200;BME280;56313;49.804;9.952;2022-08-25T01:12:08;99481.00;;;19.81;65.58
69200;BME280;56313;49.804;9.952;2022-08-25T01:14:33;99472.63;;;19.84;65.46
69200;BME280;56313;49.804;9.952;2022-08-25T01:16:59;99464.84;;;19.83;65.30
69200;BME280;56313;49.804;9.952;2022-08-25T01:19:26;99474.47;;;19.84;65.45
69200;BME280;56313;49.804;9.952;2022-08-25T01:21:53;99459.97;;;19.73;65.60
69200;BME280;56313;49.804;9.952;2022-08-25T01:24:23;99476.50;;;19.75;65.67
69200;BME280;56313;49.804;9.952;2022-08-25T01:26:50;99476.91;;;19.65;66.31
69200;BME280;56313;49.804;9.952;2022-08-25T01:29:15;99477.31;;;19.62;66.11
69200;BME280;56313;49.804;9.952;2022-08-25T01:31:49;99482.81;;;19.54;66.55
69200;BME280;56313;49.804;9.952;2022-08-25T01:34:17;99471.72;;;19.36;67.38
69200;BME280;56313;49.804;9.952;2022-08-25T01:36:43;99469.88;;;19.30;67.50
69200;BME280;56313;49.804;9.952;2022-08-25T01:39:08;99473.78;;;19.34;67.35
69200;BME280;56313;49.804;9.952;2022-08-25T01:44:00;99467.44;;;19.35;67.24
69200;BME280;56313;49.804;9.952;2022-08-25T01:46:25;99466.38;;;19.23;67.57
69200;BME280;56313;49.804;9.952;2022-08-25T01:48:50;99463.31;;;19.19;67.85
69200;BME280;56313;49.804;9.952;2022-08-25T01:51:16;99467.34;;;19.08;68.21
69200;BME280;56313;49.804;9.952;2022-08-25T01:53:43;99468.94;;;19.03;68.23
69200;BME280;56313;49.804;9.952;2022-08-25T01:56:12;99464.84;;;19.00;68.51
69200;BME280;56313;49.804;9.952;2022-08-25T01:58:39;99470.53;;;18.97;68.68
69200;BME280;56313;49.804;9.952;2022-08-25T02:01:06;99475.00;;;18.90;68.81
69200;BME280;56313;49.804;9.952;2022-08-25T02:03:35;99472.72;;;18.80;68.89
69200;BME280;56313;49.804;9.952;2022-08-25T02:06:02;99471.44;;;18.76;69.08
69200;BME280;56313;49.804;9.952;2022-08-25T02:08:27;99472.63;;;18.66;69.53
69200;BME280;56313;49.804;9.952;2022-08-25T02:10:52;99470.19;;;18.65;69.70
69200;BME280;56313;49.804;9.952;2022-08-25T02:13:18;99466.50;;;18.66;69.56
69200;BME280;56313;49.804;9.952;2022-08-25T02:15:46;99471.16;;;18.64;69.79
69200;BME280;56313;49.804;9.952;2022-08-25T02:18:12;99465.34;;;18.75;69.43
69200;BME280;56313;49.804;9.952;2022-08-25T02:20:37;99465.09;;;18.70;69.51
69200;BME280;56313;49.804;9.952;2022-08-25T02:23:02;99454.69;;;18.68;69.56
69200;BME280;56313;49.804;9.952;2022-08-25T02:25:28;99456.09;;;18.71;69.43
69200;BME280;56313;49.804;9.952;2022-08-25T02:27:54;99455.69;;;18.67;69.65
69200;BME280;56313;49.804;9.952;2022-08-25T02:30:19;99451.94;;;18.55;70.24
69200;BME280;56313;49.804;9.952;2022-08-25T02:32:44;99450.75;;;18.57;70.09
69200;BME280;56313;49.804;9.952;2022-08-25T02:35:09;99453.44;;;18.64;69.97
69200;BME280;56313;49.804;9.952;2022-08-25T02:37:35;99450.78;;;18.64;69.96
69200;BME280;56313;49.804;9.952;2022-08-25T02:40:01;99450.38;;;18.60;69.99
69200;BME280;56313;49.804;9.952;2022-08-25T02:42:26;99450.78;;;18.64;70.13
69200;BME280;56313;49.804;9.952;2022-08-25T02:44:52;99447.56;;;18.76;69.61
69200;BME280;56313;49.804;9.952;2022-08-25T02:47:18;99448.56;;;18.68;69.95
69200;BME280;56313;49.804;9.952;2022-08-25T02:49:43;99452.38;;;18.58;70.39
69200;BME280;56313;49.804;9.952;2022-08-25T02:52:08;99454.56;;;18.48;70.53
69200;BME280;56313;49.804;9.952;2022-08-25T02:54:34;99452.31;;;18.45;70.79
69200;BME280;56313;49.804;9.952;2022-08-25T02:56:59;99452.50;;;18.43;71.07
69200;BME280;56313;49.804;9.952;2022-08-25T02:59:24;99453.22;;;18.30;71.38
69200;BME280;56313;49.804;9.952;2022-08-25T03:01:50;99452.78;;;18.27;71.32
69200;BME280;56313;49.804;9.952;2022-08-25T03:04:15;99448.88;;;18.22;71.65
69200;BME280;56313;49.804;9.952;2022-08-25T03:06:40;99451.38;;;18.31;71.53
69200;BME280;56313;49.804;9.952;2022-08-25T03:09:06;99454.28;;;18.36;71.14
69200;BME280;56313;49.804;9.952;2022-08-25T03:11:31;99459.75;;;18.28;71.43
69200;BME280;56313;49.804;9.952;2022-08-25T03:13:56;99464.66;;;18.09;71.92
69200;BME280;56313;49.804;9.952;2022-08-25T03:16:22;99451.50;;;18.16;71.67
69200;BME280;56313;49.804;9.952;2022-08-25T03:18:47;99450.53;;;18.23;71.62
69200;BME280;56313;49.804;9.952;2022-08-25T03:21:12;99450.19;;;18.33;71.23
69200;BME280;56313;49.804;9.952;2022-08-25T03:23:38;99454.28;;;18.36;71.27
69200;BME280;56313;49.804;9.952;2022-08-25T03:26:04;99443.44;;;18.31;71.56
69200;BME280;56313;49.804;9.952;2022-08-25T03:28:48;99450.19;;;18.33;71.64
69200;BME280;56313;49.804;9.952;2022-08-25T03:31:13;99446.88;;;18.25;71.77
69200;BME280;56313;49.804;9.952;2022-08-25T03:33:38;99437.63;;;18.14;72.40
69200;BME280;56313;49.804;9.952;2022-08-25T03:36:04;99438.34;;;18.07;72.56
69200;BME280;56313;49.804;9.952;2022-08-25T03:38:30;99440.56;;;18.04;72.84
69200;BME280;56313;49.804;9.952;2022-08-25T03:40:55;99433.88;;;18.08;72.70
69200;BME280;56313;49.804;9.952;2022-08-25T03:43:20;99434.31;;;18.11;72.80
69200;BME280;56313;49.804;9.952;2022-08-25T03:45:46;99429.03;;;18.11;72.66
69200;BME280;56313;49.804;9.952;2022-08-25T03:48:12;99432.69;;;18.10;72.62
69200;BME280;56313;49.804;9.952;2022-08-25T03:50:42;99430.97;;;18.03;72.96
69200;BME280;56313;49.804;9.952;2022-08-25T03:53:08;99432.94;;;17.94;73.24
69200;BME280;56313;49.804;9.952;2022-08-25T03:55:33;99433.72;;;17.88;73.45
69200;BME280;56313;49.804;9.952;2022-08-25T03:57:58;99424.13;;;17.86;73.57
69200;BME280;56313;49.804;9.952;2022-08-25T04:00:24;99433.47;;;17.82;73.77
69200;BME280;56313;49.804;9.952;2022-08-25T04:02:49;99432.44;;;17.83;73.47
69200;BME280;56313;49.804;9.952;2022-08-25T04:05:14;99435.19;;;17.68;74.04
69200;BME280;56313;49.804;9.952;2022-08-25T04:07:39;99437.25;;;17.51;74.78
69200;BME280;56313;49.804;9.952;2022-08-25T04:10:06;99436.94;;;17.61;74.33
69200;BME280;56313;49.804;9.952;2022-08-25T04:12:32;99438.97;;;17.59;74.08
69200;BME280;56313;49.804;9.952;2022-08-25T04:15:05;99440.66;;;17.45;74.64
69200;BME280;56313;49.804;9.952;2022-08-25T04:17:31;99435.66;;;17.57;74.09
69200;BME280;56313;49.804;9.952;2022-08-25T04:19:56;99442.03;;;17.63;73.94
69200;BME280;56313;49.804;9.952;2022-08-25T04:22:21;99446.06;;;17.58;73.91
69200;BME280;56313;49.804;9.952;2022-08-25T04:24:47;99437.75;;;17.62;73.91
69200;BME280;56313;49.804;9.952;2022-08-25T04:27:12;99446.63;;;17.54;74.23
69200;BME280;56313;49.804;9.952;2022-08-25T04:29:37;99447.22;;;17.49;74.49
69200;BME280;56313;49.804;9.952;2022-08-25T04:32:02;99450.13;;;17.54;74.41
69200;BME280;56313;49.804;9.952;2022-08-25T04:34:28;99451.94;;;17.54;74.39
69200;BME280;56313;49.804;9.952;2022-08-25T04:36:53;99451.94;;;17.54;74.33
69200;BME280;56313;49.804;9.952;2022-08-25T04:39:19;99437.63;;;17.48;74.49
69200;BME280;56313;49.804;9.952;2022-08-25T04:41:45;99436.69;;;17.34;74.87
69200;BME280;56313;49.804;9.952;2022-08-25T04:44:11;99429.59;;;17.19;75.65
69200;BME280;56313;49.804;9.952;2022-08-25T04:46:36;99421.97;;;17.31;75.13
69200;BME280;56313;49.804;9.952;2022-08-25T04:49:02;99415.03;;;17.30;75.35
69200;BME280;56313;49.804;9.952;2022-08-25T04:51:35;99416.25;;;17.50;74.64
69200;BME280;56313;49.804;9.952;2022-08-25T04:54:01;99421.88;;;17.62;74.31
69200;BME280;56313;49.804;9.952;2022-08-25T04:56:28;99406.25;;;17.67;73.96
69200;BME280;56313;49.804;9.952;2022-08-25T04:58:54;99412.16;;;17.69;73.83
69200;BME280;56313;49.804;9.952;2022-08-25T05:01:23;99413.84;;;17.77;74.70
69200;BME280;56313;49.804;9.952;2022-08-25T05:03:56;99417.53;;;18.04;72.92
69200;BME280;56313;49.804;9.952;2022-08-25T05:06:22;99411.03;;;18.07;72.47
69200;BME280;56313;49.804;9.952;2022-08-25T05:08:47;99408.28;;;18.22;72.64
69200;BME280;56313;49.804;9.952;2022-08-25T05:11:13;99412.91;;;18.42;71.54
69200;BME280;56313;49.804;9.952;2022-08-25T05:13:40;99421.78;;;18.20;72.13
69200;BME280;56313;49.804;9.952;2022-08-25T05:16:05;99423.34;;;18.15;72.71
69200;BME280;56313;49.804;9.952;2022-08-25T05:18:32;99426.44;;;18.18;72.43
69200;BME280;56313;49.804;9.952;2022-08-25T05:21:02;99435.78;;;18.14;72.75
69200;BME280;56313;49.804;9.952;2022-08-25T05:23:27;99435.22;;;18.19;72.57
69200;BME280;56313;49.804;9.952;2022-08-25T05:25:53;99436.41;;;18.16;72.77
69200;BME280;56313;49.804;9.952;2022-08-25T05:28:18;99432.97;;;18.22;72.39
69200;BME280;56313;49.804;9.952;2022-08-25T05:30:44;99434.47;;;18.32;72.32
69200;BME280;56313;49.804;9.952;2022-08-25T05:33:11;99439.00;;;18.38;72.19
69200;BME280;56313;49.804;9.952;2022-08-25T05:35:37;99430.63;;;18.41;72.11
69200;BME280;56313;49.804;9.952;2022-08-25T05:38:03;99440.38;;;18.34;72.19
69200;BME280;56313;49.804;9.952;2022-08-25T05:40:29;99432.81;;;18.31;72.49
69200;BME280;56313;49.804;9.952;2022-08-25T05:42:55;99437.44;;;18.51;72.48
69200;BME280;56313;49.804;9.952;2022-08-25T05:45:20;99435.78;;;18.85;70.97
69200;BME280;56313;49.804;9.952;2022-08-25T05:47:46;99429.19;;;19.16;69.37
69200;BME280;56313;49.804;9.952;2022-08-25T05:50:11;99434.06;;;19.12;69.49
69200;BME280;56313;49.804;9.952;2022-08-25T05:52:37;99431.25;;;19.28;68.80
69200;BME280;56313;49.804;9.952;2022-08-25T05:55:02;99427.19;;;19.39;68.52
69200;BME280;56313;49.804;9.952;2022-08-25T05:57:27;99427.59;;;19.35;68.53
69200;BME280;56313;49.804;9.952;2022-08-25T05:59:53;99433.34;;;19.53;68.98
69200;BME280;56313;49.804;9.952;2022-08-25T06:02:18;99431.88;;;19.36;68.45
69200;BME280;56313;49.804;9.952;2022-08-25T06:05:02;99425.97;;;19.34;68.71
69200;BME280;56313;49.804;9.952;2022-08-25T06:07:27;99427.25;;;19.86;67.56
69200;BME280;56313;49.804;9.952;2022-08-25T06:09:53;99432.34;;;19.87;66.93
69200;BME280;56313;49.804;9.952;2022-08-25T06:12:19;99427.66;;;19.83;67.36
69200;BME280;56313;49.804;9.952;2022-08-25T06:14:45;99425.22;;;19.74;67.61
69200;BME280;56313;49.804;9.952;2022-08-25T06:17:11;99414.38;;;19.96;66.87
69200;BME280;56313;49.804;9.952;2022-08-25T06:19:36;99411.91;;;19.95;67.49
69200;BME280;56313;49.804;9.952;2022-08-25T06:22:01;99409.66;;;19.92;67.19
69200;BME280;56313;49.804;9.952;2022-08-25T06:24:27;99414.56;;;20.29;66.28
69200;BME280;56313;49.804;9.952;2022-08-25T06:26:53;99414.38;;;19.83;67.97
69200;BME280;56313;49.804;9.952;2022-08-25T06:29:18;99411.69;;;20.30;66.50
69200;BME280;56313;49.804;9.952;2022-08-25T06:31:44;99409.81;;;20.37;66.06
69200;BME280;56313;49.804;9.952;2022-08-25T06:34:10;99408.03;;;20.31;65.92
69200;BME280;56313;49.804;9.952;2022-08-25T06:36:35;99401.88;;;19.90;67.71
69200;BME280;56313;49.804;9.952;2022-08-25T06:39:01;99404.56;;;20.10;67.15
69200;BME280;56313;49.804;9.952;2022-08-25T06:41:26;99400.47;;;20.28;68.67
69200;BME280;56313;49.804;9.952;2022-08-25T06:43:51;99405.56;;;20.23;67.06
69200;BME280;56313;49.804;9.952;2022-08-25T06:46:18;99405.50;;;20.43;66.43
69200;BME280;56313;49.804;9.952;2022-08-25T06:48:43;99396.66;;;20.70;65.49
69200;BME280;56313;49.804;9.952;2022-08-25T06:51:10;99399.28;;;20.76;65.24
69200;BME280;56313;49.804;9.952;2022-08-25T06:53:36;99404.53;;;20.97;65.00
69200;BME280;56313;49.804;9.952;2022-08-25T06:56:02;99400.44;;;21.01;64.68
69200;BME280;56313;49.804;9.952;2022-08-25T06:58:27;99406.72;;;20.61;66.17
69200;BME280;56313;49.804;9.952;2022-08-25T07:00:53;99404.75;;;20.88;65.72
69200;BME280;56313;49.804;9.952;2022-08-25T07:03:19;99398.44;;;20.83;65.73
69200;BME280;56313;49.804;9.952;2022-08-25T07:05:54;99397.78;;;21.01;65.34
69200;BME280;56313;49.804;9.952;2022-08-25T07:08:21;99397.09;;;21.06;65.20
69200;BME280;56313;49.804;9.952;2022-08-25T07:10:46;99389.16;;;20.99;65.42
69200;BME280;56313;49.804;9.952;2022-08-25T07:13:13;99387.00;;;20.75;66.35
69200;BME280;56313;49.804;9.952;2022-08-25T07:15:39;99393.91;;;20.83;66.23
69200;BME280;56313;49.804;9.952;2022-08-25T07:18:05;99391.16;;;21.10;65.54
69200;BME280;56313;49.804;9.952;2022-08-25T07:20:32;99393.25;;;21.34;65.27
69200;BME280;56313;49.804;9.952;2022-08-25T07:22:57;99397.88;;;21.20;65.33
69200;BME280;56313;49.804;9.952;2022-08-25T07:25:22;99400.03;;;21.36;65.56
69200;BME280;56313;49.804;9.952;2022-08-25T07:27:48;99397.00;;;21.26;65.28
69200;BME280;56313;49.804;9.952;2022-08-25T07:30:15;99393.22;;;21.41;65.19
69200;BME280;56313;49.804;9.952;2022-08-25T07:32:40;99395.47;;;21.44;65.12
69200;BME280;56313;49.804;9.952;2022-08-25T07:35:06;99392.56;;;21.45;65.29
69200;BME280;56313;49.804;9.952;2022-08-25T07:37:42;99393.25;;;21.34;65.56
69200;BME280;56313;49.804;9.952;2022-08-25T07:40:09;99390.78;;;21.39;65.64
69200;BME280;56313;49.804;9.952;2022-08-25T07:42:34;99395.38;;;21.57;64.85
69200;BME280;56313;49.804;9.952;2022-08-25T07:45:00;99393.94;;;21.55;65.03
69200;BME280;56313;49.804;9.952;2022-08-25T07:47:25;99389.91;;;21.77;64.45
69200;BME280;56313;49.804;9.952;2022-08-25T07:49:50;99399.03;;;21.88;64.19
69200;BME280;56313;49.804;9.952;2022-08-25T07:52:16;99402.47;;;21.63;64.73
69200;BME280;56313;49.804;9.952;2022-08-25T07:54:41;99394.72;;;21.62;65.12
69200;BME280;56313;49.804;9.952;2022-08-25T07:57:07;99391.94;;;21.75;64.43
69200;BME280;56313;49.804;9.952;2022-08-25T07:59:34;99398.28;;;21.81;64.27
69200;BME280;56313;49.804;9.952;2022-08-25T08:01:59;99398.97;;;21.95;63.83
69200;BME280;56313;49.804;9.952;2022-08-25T08:04:24;99401.59;;;22.21;63.01
69200;BME280;56313;49.804;9.952;2022-08-25T08:06:50;99398.53;;;22.17;63.18
69200;BME280;56313;49.804;9.952;2022-08-25T08:09:15;99400.84;;;22.13;63.89
69200;BME280;56313;49.804;9.952;2022-08-25T08:11:41;99409.03;;;22.37;62.65
69200;BME280;56313;49.804;9.952;2022-08-25T08:14:09;99409.09;;;22.31;63.08
69200;BME280;56313;49.804;9.952;2022-08-25T08:16:35;99414.41;;;22.31;62.48
69200;BME280;56313;49.804;9.952;2022-08-25T08:19:01;99409.81;;;22.38;62.53
69200;BME280;56313;49.804;9.952;2022-08-25T08:21:31;99412.34;;;22.33;62.84
69200;BME280;56313;49.804;9.952;2022-08-25T08:23:57;99414.84;;;22.27;63.02
69200;BME280;56313;49.804;9.952;2022-08-25T08:26:22;99410.78;;;22.25;62.93
69200;BME280;56313;49.804;9.952;2022-08-25T08:28:48;99411.41;;;22.27;63.20
69200;BME280;56313;49.804;9.952;2022-08-25T08:31:15;99411.53;;;22.13;63.60
69200;BME280;56313;49.804;9.952;2022-08-25T08:33:43;99406.63;;;22.29;62.92
69200;BME280;56313;49.804;9.952;2022-08-25T08:36:09;99403.75;;;22.31;62.55
69200;BME280;56313;49.804;9.952;2022-08-25T08:38:36;99407.91;;;22.45;62.49
69200;BME280;56313;49.804;9.952;2022-08-25T08:44:25;99401.84;;;22.75;60.81
69200;BME280;56313;49.804;9.952;2022-08-25T08:47:02;99396.22;;;22.46;62.32
69200;BME280;56313;49.804;9.952;2022-08-25T08:49:37;99393.84;;;23.06;60.10
69200;BME280;56313;49.804;9.952;2022-08-25T08:52:04;99389.72;;;23.34;59.67
69200;BME280;56313;49.804;9.952;2022-08-25T08:54:33;99389.78;;;23.46;58.88
69200;BME280;56313;49.804;9.952;2022-08-25T08:57:03;99383.47;;;23.71;57.81
69200;BME280;56313;49.804;9.952;2022-08-25T08:59:32;99383.94;;;23.80;57.77
69200;BME280;56313;49.804;9.952;2022-08-25T09:02:02;99381.53;;;23.48;57.76
69200;BME280;56313;49.804;9.952;2022-08-25T09:07:17;99386.47;;;23.63;57.11
69200;BME280;56313;49.804;9.952;2022-08-25T09:09:43;99381.69;;;23.53;57.42
69200;BME280;56313;49.804;9.952;2022-08-25T09:24:56;99363.22;;;24.23;55.41
69200;BME280;56313;49.804;9.952;2022-08-25T09:27:35;99360.66;;;23.81;56.71
69200;BME280;56313;49.804;9.952;2022-08-25T09:30:06;99357.41;;;23.78;56.39
69200;BME280;56313;49.804;9.952;2022-08-25T09:32:34;99360.56;;;23.87;56.06
69200;BME280;56313;49.804;9.952;2022-08-25T09:35:00;99341.84;;;23.75;56.09
69200;BME280;56313;49.804;9.952;2022-08-25T09:37:27;99349.72;;;23.70;56.36
69200;BME280;56313;49.804;9.952;2022-08-25T09:39:52;99341.69;;;24.30;55.00
69200;BME280;56313;49.804;9.952;2022-08-25T09:42:18;99343.25;;;24.43;54.11
69200;BME280;56313;49.804;9.952;2022-08-25T09:44:45;99319.69;;;24.28;53.26
69200;BME280;56313;49.804;9.952;2022-08-25T09:49:46;99313.59;;;24.45;54.26
69200;BME280;56313;49.804;9.952;2022-08-25T09:54:57;99301.34;;;24.78;52.23
69200;BME280;56313;49.804;9.952;2022-08-25T09:57:34;99297.34;;;24.63;53.68
69200;BME280;56313;49.804;9.952;2022-08-25T10:00:10;99301.88;;;24.34;52.87
69200;BME280;56313;49.804;9.952;2022-08-25T10:02:36;99303.78;;;23.97;54.46
69200;BME280;56313;49.804;9.952;2022-08-25T10:07:48;99289.34;;;24.22;52.80
69200;BME280;56313;49.804;9.952;2022-08-25T10:10:22;99295.00;;;24.38;53.26
69200;BME280;56313;49.804;9.952;2022-08-25T10:12:48;99286.63;;;24.63;52.62
69200;BME280;56313;49.804;9.952;2022-08-25T10:15:22;99291.56;;;24.01;54.45
69200;BME280;56313;49.804;9.952;2022-08-25T10:17:48;99297.13;;;24.12;53.55
69200;BME280;56313;49.804;9.952;2022-08-25T10:20:19;99289.81;;;23.95;53.72
69200;BME280;56313;49.804;9.952;2022-08-25T10:22:45;99289.34;;;23.98;54.37
69200;BME280;56313;49.804;9.952;2022-08-25T10:25:12;99281.53;;;24.09;54.13
69200;BME280;56313;49.804;9.952;2022-08-25T10:40:28;99271.03;;;23.78;54.72
69200;BME280;56313;49.804;9.952;2022-08-25T10:43:02;99267.44;;;23.60;55.66
69200;BME280;56313;49.804;9.952;2022-08-25T10:45:31;99258.56;;;23.84;56.47
69200;BME280;56313;49.804;9.952;2022-08-25T11:01:10;99230.34;;;24.29;53.49
69200;BME280;56313;49.804;9.952;2022-08-25T11:05:59;99224.69;;;24.13;51.64
69200;BME280;56313;49.804;9.952;2022-08-25T11:10:56;99225.03;;;24.17;52.08
69200;BME280;56313;49.804;9.952;2022-08-25T11:15:54;99218.94;;;24.51;51.55
69200;BME280;56313;49.804;9.952;2022-08-25T11:18:20;99221.25;;;23.89;54.17
69200;BME280;56313;49.804;9.952;2022-08-25T11:21:05;99217.75;;;23.88;52.72
69200;BME280;56313;49.804;9.952;2022-08-25T11:23:37;99209.72;;;24.29;54.72
69200;BME280;56313;49.804;9.952;2022-08-25T11:26:09;99203.00;;;23.86;56.49
69200;BME280;56313;49.804;9.952;2022-08-25T11:31:04;99202.00;;;23.51;57.71
69200;BME280;56313;49.804;9.952;2022-08-25T11:33:31;99188.63;;;24.79;50.21
69200;BME280;56313;49.804;9.952;2022-08-25T11:43:47;99193.34;;;25.24;50.75
69200;BME280;56313;49.804;9.952;2022-08-25T11:46:37;99187.25;;;25.51;47.30
69200;BME280;56313;49.804;9.952;2022-08-25T11:51:41;99184.69;;;25.39;47.02
69200;BME280;56313;49.804;9.952;2022-08-25T11:56:36;99177.56;;;25.27;48.01
69200;BME280;56313;49.804;9.952;2022-08-25T11:59:05;99182.88;;;25.45;47.35
69200;BME280;56313;49.804;9.952;2022-08-25T12:07:00;99164.00;;;25.56;47.47
69200;BME280;56313;49.804;9.952;2022-08-25T12:09:22;99167.03;;;23.16;58.81
69200;BME280;56313;49.804;9.952;2022-08-25T12:11:50;99160.28;;;25.18;47.94
69200;BME280;56313;49.804;9.952;2022-08-25T12:16:42;99152.59;;;26.16;48.26
69200;BME280;56313;49.804;9.952;2022-08-25T12:21:52;99154.16;;;25.85;49.21
69200;BME280;56313;49.804;9.952;2022-08-25T12:27:03;99155.44;;;24.98;51.45
69200;BME280;56313;49.804;9.952;2022-08-25T12:29:41;99145.50;;;25.77;47.84
69200;BME280;56313;49.804;9.952;2022-08-25T12:37:23;99144.25;;;26.13;45.22
69200;BME280;56313;49.804;9.952;2022-08-25T12:45:07;99138.81;;;25.58;48.68
69200;BME280;56313;49.804;9.952;2022-08-25T12:47:33;99145.94;;;24.55;52.80
69200;BME280;56313;49.804;9.952;2022-08-25T12:52:43;99148.94;;;24.42;50.80
69200;BME280;56313;49.804;9.952;2022-08-25T12:55:09;99135.19;;;25.69;46.62
69200;BME280;56313;49.804;9.952;2022-08-25T12:57:45;99129.28;;;25.67;49.86
69200;BME280;56313;49.804;9.952;2022-08-25T13:13:09;99118.44;;;25.79;49.35
69200;BME280;56313;49.804;9.952;2022-08-25T13:15:39;99114.88;;;25.73;46.13
69200;BME280;56313;49.804;9.952;2022-08-25T13:18:15;99108.03;;;27.24;42.25
69200;BME280;56313;49.804;9.952;2022-08-25T13:20:41;99111.72;;;26.69;46.81
69200;BME280;56313;49.804;9.952;2022-08-25T13:23:07;99112.50;;;26.32;44.55
69200;BME280;56313;49.804;9.952;2022-08-25T13:25:32;99100.53;;;26.88;42.73
69200;BME280;56313;49.804;9.952;2022-08-25T13:28:00;99095.03;;;26.67;46.66
69200;BME280;56313;49.804;9.952;2022-08-25T13:30:28;99094.00;;;24.91;50.38
69200;BME280;56313;49.804;9.952;2022-08-25T13:32:54;99085.03;;;25.64;47.08
69200;BME280;56313;49.804;9.952;2022-08-25T13:35:21;99088.69;;;25.80;49.10
69200;BME280;56313;49.804;9.952;2022-08-25T13:37:47;99085.06;;;25.47;50.57
69200;BME280;56313;49.804;9.952;2022-08-25T13:40:26;99080.66;;;26.13;47.29
69200;BME280;56313;49.804;9.952;2022-08-25T13:42:58;99079.22;;;25.28;50.08
69200;BME280;56313;49.804;9.952;2022-08-25T13:45:24;99080.03;;;26.06;45.25
69200;BME280;56313;49.804;9.952;2022-08-25T13:47:50;99080.06;;;27.25;41.96
69200;BME280;56313;49.804;9.952;2022-08-25T13:52:46;99073.41;;;26.90;43.99
69200;BME280;56313;49.804;9.952;2022-08-25T13:55:17;99074.91;;;25.72;50.12
69200;BME280;56313;49.804;9.952;2022-08-25T13:57:43;99074.38;;;27.16;43.46
69200;BME280;56313;49.804;9.952;2022-08-25T14:00:09;99067.72;;;26.81;44.54
69200;BME280;56313;49.804;9.952;2022-08-25T14:05:04;99075.56;;;25.84;46.34
69200;BME280;56313;49.804;9.952;2022-08-25T14:07:29;99077.53;;;27.03;40.96
69200;BME280;56313;49.804;9.952;2022-08-25T14:12:25;99065.09;;;26.43;46.81
69200;BME280;56313;49.804;9.952;2022-08-25T14:14:58;99064.50;;;23.88;55.28
69200;BME280;56313;49.804;9.952;2022-08-25T14:17:23;99057.75;;;24.66;52.74
69200;BME280;56313;49.804;9.952;2022-08-25T14:19:49;99065.16;;;24.41;49.15
69200;BME280;56313;49.804;9.952;2022-08-25T14:22:14;99059.38;;;25.51;45.70
69200;BME280;56313;49.804;9.952;2022-08-25T14:24:39;99051.72;;;25.88;43.87
69200;BME280;56313;49.804;9.952;2022-08-25T14:27:05;99050.88;;;26.15;42.48
69200;BME280;56313;49.804;9.952;2022-08-25T14:29:30;99047.91;;;26.11;46.88
69200;BME280;56313;49.804;9.952;2022-08-25T14:31:55;99047.72;;;26.61;43.92
69200;BME280;56313;49.804;9.952;2022-08-25T14:34:21;99048.09;;;26.80;40.77
69200;BME280;56313;49.804;9.952;2022-08-25T14:36:48;99052.84;;;26.63;41.40
69200;BME280;56313;49.804;9.952;2022-08-25T14:39:13;99045.34;;;27.13;40.52
69200;BME280;56313;49.804;9.952;2022-08-25T14:41:40;99036.25;;;27.25;41.20
69200;BME280;56313;49.804;9.952;2022-08-25T14:44:05;99034.31;;;26.61;41.95
69200;BME280;56313;49.804;9.952;2022-08-25T14:46:32;99031.56;;;25.85;47.39
69200;BME280;56313;49.804;9.952;2022-08-25T14:48:59;99020.63;;;27.11;44.40
69200;BME280;56313;49.804;9.952;2022-08-25T14:51:25;99023.34;;;26.68;42.75
69200;BME280;56313;49.804;9.952;2022-08-25T14:53:51;99015.53;;;26.66;43.60
69200;BME280;56313;49.804;9.952;2022-08-25T14:56:17;99020.84;;;25.85;49.38
69200;BME280;56313;49.804;9.952;2022-08-25T14:58:43;99013.28;;;26.48;44.68
69200;BME280;56313;49.804;9.952;2022-08-25T15:01:10;99011.50;;;26.64;44.88
69200;BME280;56313;49.804;9.952;2022-08-25T15:03:36;99012.41;;;26.37;48.15